TimeCEST,TemperatureF,Dew PointF,Humidity,Sea Level PressureIn,VisibilityMPH,Wind Direction,Wind SpeedMPH,Gust SpeedMPH,PrecipitationIn,Events,Conditions,WindDirDegrees,DateUTC
12:00 AM,59.0,57.2,94,29.65,6.2,Variable,1.2,-,N/A,,Partly Cloudy,0,2013-03-31 22:00:00
12:30 AM,57.2,57.2,100,29.65,6.2,Calm,Calm,-,N/A,Rain,Light Rain,0,2013-03-31 22:30:00
1:00 AM,57.2,57.2,100,29.62,6.2,Calm,Calm,-,N/A,Rain,Light Rain,0,2013-03-31 23:00:00
1:30 AM,57.2,55.4,94,29.59,6.2,Calm,Calm,-,N/A,Rain,Light Rain,0,2013-03-31 23:30:00
2:00 AM,58,53,80,29.60,9,NNE,2.3,,,Rain,Light Rain,20,2013-04-01 00:00:00
2:00 AM,59.0,57.2,94,29.59,6.2,Variable,1.2,-,N/A,Rain,Light Rain,0,2013-04-01 00:00:00
2:30 AM,57.2,57.2,100,29.56,6.2,Calm,Calm,-,N/A,Rain,Light Rain,0,2013-04-01 00:30:00
3:00 AM,57.2,57.2,100,29.56,6.2,Calm,Calm,-,N/A,,Partly Cloudy,0,2013-04-01 01:00:00
3:30 AM,57.2,57.2,100,29.56,6.2,Calm,Calm,-,N/A,,Partly Cloudy,0,2013-04-01 01:30:00
4:00 AM,57.2,55.4,94,29.53,6.2,Calm,Calm,-,N/A,,Partly Cloudy,0,2013-04-01 02:00:00
4:30 AM,57.2,57.2,100,29.53,6.2,Variable,1.2,-,N/A,,Partly Cloudy,0,2013-04-01 02:30:00
5:00 AM,57.2,57.2,100,29.53,5.6,WSW,3.5,-,N/A,Rain,Light Rain,240,2013-04-01 03:00:00
5:30 AM,57.2,57.2,100,29.53,5.6,Variable,1.2,-,N/A,Rain,Light Rain,0,2013-04-01 03:30:00
6:00 AM,57.2,55.4,94,29.53,5.6,Variable,2.3,-,N/A,Rain,Light Rain,0,2013-04-01 04:00:00
6:30 AM,55.4,55.4,100,29.53,5.6,WSW,3.5,-,N/A,,Partly Cloudy,240,2013-04-01 04:30:00
7:00 AM,55.4,55.4,100,29.53,6.2,WSW,8.1,-,N/A,,Partly Cloudy,250,2013-04-01 05:00:00
7:30 AM,55.4,55.4,100,29.53,6.2,West,4.6,-,N/A,,Scattered Clouds,270,2013-04-01 05:30:00
7:50 AM,57.2,55.4,94,29.56,5.0,WNW,10.4,-,N/A,Rain,Rain,290,2013-04-01 05:50:00
8:00 AM,57,50,71,29.60,4,WNW,19.6,,,Rain,Rain,290,2013-04-01 06:00:00
8:00 AM,57.2,53.6,88,29.59,4.3,WNW,18.4,29.9,N/A,Rain,Rain,290,2013-04-01 06:00:00
8:30 AM,57.2,50.0,77,29.56,6.2,West,10.4,-,N/A,,Mostly Cloudy,270,2013-04-01 06:30:00
9:00 AM,57.2,50.0,77,29.56,6.2,West,10.4,-,N/A,,Mostly Cloudy,270,2013-04-01 07:00:00
9:30 AM,59.0,50.0,72,29.56,6.2,West,10.4,-,N/A,,Partly Cloudy,260,2013-04-01 07:30:00
10:00 AM,62.6,50.0,63,29.56,6.2,WSW,16.1,-,N/A,,Partly Cloudy,250,2013-04-01 08:00:00
10:30 AM,64.4,44.6,49,29.56,6.2,West,21.9,-,N/A,,Partly Cloudy,260,2013-04-01 08:30:00
11:00 AM,66.2,44.6,46,29.59,6.2,West,21.9,-,N/A,,Partly Cloudy,270,2013-04-01 09:00:00
11:30 AM,68.0,44.6,43,29.59,6.2,West,21.9,-,N/A,,Partly Cloudy,260,2013-04-01 09:30:00
12:30 PM,69.8,37.4,31,29.59,6.2,West,25.3,-,N/A,,Partly Cloudy,280,2013-04-01 10:30:00
1:00 PM,69.8,37.4,31,29.62,6.2,West,23.0,38.0,N/A,,Partly Cloudy,270,2013-04-01 11:00:00
1:30 PM,71.6,39.2,31,29.59,6.2,West,20.7,32.2,N/A,,Partly Cloudy,270,2013-04-01 11:30:00
2:00 PM,71,34,15,29.62,25,West,24.2,,,,Partly Cloudy,260,2013-04-01 12:00:00
2:00 PM,71.6,37.4,29,29.62,6.2,West,23.0,-,N/A,,Scattered Clouds,260,2013-04-01 12:00:00
2:30 PM,73.4,35.6,25,29.62,6.2,West,21.9,33.4,N/A,,Scattered Clouds,280,2013-04-01 12:30:00
3:00 PM,71.6,35.6,27,29.62,6.2,West,20.7,33.4,N/A,,Scattered Clouds,280,2013-04-01 13:00:00
3:30 PM,73.4,33.8,23,29.62,6.2,West,23.0,40.3,N/A,,Scattered Clouds,280,2013-04-01 13:30:00
4:00 PM,73.4,35.6,25,29.62,6.2,West,20.7,33.4,N/A,,Scattered Clouds,280,2013-04-01 14:00:00
4:30 PM,73.4,33.8,23,29.59,6.2,West,21.9,33.4,N/A,,Scattered Clouds,260,2013-04-01 14:30:00
5:00 PM,71.6,32.0,23,29.62,6.2,West,25.3,-,N/A,,Scattered Clouds,270,2013-04-01 15:00:00
5:30 PM,71.6,35.6,27,29.62,6.2,West,23.0,-,N/A,,Scattered Clouds,260,2013-04-01 15:30:00
6:30 PM,71.6,35.6,27,29.62,6.2,West,20.7,34.5,N/A,,Scattered Clouds,260,2013-04-01 16:30:00
7:00 PM,71.6,35.6,27,29.62,6.2,WSW,18.4,31.1,N/A,,Scattered Clouds,250,2013-04-01 17:00:00
7:30 PM,69.8,37.4,31,29.65,6.2,West,12.7,-,N/A,,Scattered Clouds,260,2013-04-01 17:30:00
8:00 PM,68,31,15,29.67,19,West,17.3,,,,Scattered Clouds,270,2013-04-01 18:00:00
8:00 PM,68.0,33.8,28,29.65,6.2,West,17.3,-,N/A,,Partly Cloudy,270,2013-04-01 18:00:00
8:30 PM,66.2,35.6,32,29.68,6.2,West,18.4,31.1,N/A,,Partly Cloudy,270,2013-04-01 18:30:00
9:00 PM,66.2,37.4,35,29.68,6.2,West,12.7,-,N/A,,Partly Cloudy,270,2013-04-01 19:00:00
9:30 PM,64.4,37.4,37,29.71,6.2,WSW,9.2,25.3,N/A,,Partly Cloudy,250,2013-04-01 19:30:00
10:00 PM,64.4,37.4,37,29.71,6.2,West,12.7,-,N/A,,Partly Cloudy,280,2013-04-01 20:00:00
10:30 PM,64.4,39.2,40,29.74,6.2,West,10.4,-,N/A,,Partly Cloudy,260,2013-04-01 20:30:00
11:00 PM,62.6,39.2,42,29.74,6.2,WSW,5.8,-,N/A,,Partly Cloudy,250,2013-04-01 21:00:00
11:30 PM,60.8,39.2,45,29.74,6.2,West,5.8,-,N/A,,Partly Cloudy,260,2013-04-01 21:30:00